Time;durP1;ratioP1;P1;durP2;ratioP2;P2;SDS_P1;SDS_P2;PMS_P1;PMS_P2;Temp;Humidity;BMP_temperature;BMP_pressure;BME280_temperature;BME280_humidity;BME280_pressure;Samples;Min_cycle;Max_cycle;Signal;HPM_P1;HPM_P2
2022/05/06 00:00:18;;;;;;;;;;;12.40;99.90;;;;;;4999224;28;20021;-74
2022/05/06 00:02:45;;;;;;;;;;;12.40;99.90;;;;;;5002031;28;19929;-73
2022/05/06 00:05:16;;;;;;;;;;;12.40;99.90;;;;;;4990439;28;20027;-73
2022/05/06 00:07:43;;;;;;;;;;;12.40;99.90;;;;;;4997023;28;19930;-73
2022/05/06 00:10:15;;;;;;;;;;;12.40;99.90;;;;;;5001877;28;20017;-74
2022/05/06 00:12:46;;;;;;;;;;;12.40;99.90;;;;;;5002520;28;19926;-74
2022/05/06 00:15:18;;;;;;;;;;;12.40;99.90;;;;;;5002061;28;19930;-73
2022/05/06 00:17:50;;;;;;;;;;;12.30;99.90;;;;;;5005527;28;19936;-74
2022/05/06 00:20:17;;;;;;;;;;;12.30;99.90;;;;;;4986483;28;19992;-74
2022/05/06 00:22:48;;;;;;;;;;;12.30;99.90;;;;;;5005018;28;19937;-74
2022/05/06 00:25:16;;;;;;;;;;;12.30;99.90;;;;;;5005278;28;19940;-74
2022/05/06 00:27:47;;;;;;;;;;;12.30;99.90;;;;;;5001179;28;20289;-74
2022/05/06 00:30:19;;;;;;;;;;;12.30;99.90;;;;;;4984131;28;20414;-74
2022/05/06 00:32:51;;;;;;;;;;;12.30;99.90;;;;;;5001877;28;20036;-74
2022/05/06 00:35:23;;;;;;;;;;;12.30;99.90;;;;;;4990239;28;19930;-74
2022/05/06 00:37:55;;;;;;;;;;;12.30;99.90;;;;;;5006965;28;20454;-74
2022/05/06 00:40:27;;;;;;;;;;;12.20;99.90;;;;;;4991830;28;19968;-74
2022/05/06 00:42:58;;;;;;;;;;;12.30;99.90;;;;;;4992773;28;20286;-73
2022/05/06 00:45:39;;;;;;;;;;;12.30;99.90;;;;;;5003687;28;19929;-73
2022/05/06 00:48:12;;;;;;;;;;;12.30;99.90;;;;;;5004016;28;20378;-74
2022/05/06 00:50:45;;;;;;;;;;;12.40;99.90;;;;;;5002853;28;19930;-74
2022/05/06 00:53:17;;;;;;;;;;;12.40;99.90;;;;;;5001162;28;19925;-74
2022/05/06 00:55:49;;;;;;;;;;;12.30;99.90;;;;;;5005848;28;20634;-74
2022/05/06 00:58:23;;;;;;;;;;;12.20;99.90;;;;;;5002614;28;19934;-73
2022/05/06 01:00:55;;;;;;;;;;;12.20;99.90;;;;;;4987969;28;20020;-73
2022/05/06 01:03:27;;;;;;;;;;;12.20;99.90;;;;;;5007530;28;19929;-73
2022/05/06 01:06:02;;;;;;;;;;;12.20;99.90;;;;;;5001877;28;19932;-73
2022/05/06 01:08:35;;;;;;;;;;;12.20;99.90;;;;;;5004340;28;19925;-74
2022/05/06 01:11:07;;;;;;;;;;;12.10;99.90;;;;;;4991324;28;20264;-74
2022/05/06 01:13:39;;;;;;;;;;;12.10;99.90;;;;;;4993105;28;20450;-73
2022/05/06 01:16:16;;;;;;;;;;;12.20;99.90;;;;;;5015230;28;19933;-73
2022/05/06 01:18:53;;;;;;;;;;;12.20;99.90;;;;;;4988622;28;19996;-74
2022/05/06 01:21:26;;;;;;;;;;;12.20;99.90;;;;;;5005277;28;19967;-73
2022/05/06 01:23:58;;;;;;;;;;;12.30;99.90;;;;;;5003220;28;19932;-74
2022/05/06 01:26:48;;;;;;;;;;;12.30;99.90;;;;;;5005397;28;20450;-73
2022/05/06 01:29:21;;;;;;;;;;;12.30;99.90;;;;;;5001644;28;19933;-75
2022/05/06 01:31:47;;;;;;;;;;;12.20;99.90;;;;;;5006267;28;19948;-74
2022/05/06 01:34:15;;;;;;;;;;;12.20;99.90;;;;;;4985699;28;19926;-73
2022/05/06 01:36:49;;;;;;;;;;;12.20;99.90;;;;;;5003200;28;20312;-74
2022/05/06 01:39:18;;;;;;;;;;;12.30;99.90;;;;;;5001843;28;19926;-73
2022/05/06 01:41:52;;;;;;;;;;;12.20;99.90;;;;;;4985771;28;20402;-73
2022/05/06 01:44:41;;;;;;;;;;;12.20;99.90;;;;;;5003665;28;19933;-74
2022/05/06 01:47:23;;;;;;;;;;;12.20;99.90;;;;;;4999999;28;19949;-73
2022/05/06 01:50:00;;;;;;;;;;;12.20;99.90;;;;;;5017722;28;19933;-73
2022/05/06 01:52:33;;;;;;;;;;;12.20;99.90;;;;;;4999886;28;19940;-73
2022/05/06 01:55:06;;;;;;;;;;;12.20;99.90;;;;;;4987734;28;19936;-74
2022/05/06 01:57:42;;;;;;;;;;;12.20;99.90;;;;;;5008610;28;19933;-74
2022/05/06 02:00:15;;;;;;;;;;;12.20;99.90;;;;;;4989057;28;20370;-73
2022/05/06 02:02:48;;;;;;;;;;;12.20;99.90;;;;;;4989125;28;20382;-73
2022/05/06 02:05:27;;;;;;;;;;;12.20;99.90;;;;;;4996123;28;20016;-74
2022/05/06 02:07:58;;;;;;;;;;;12.30;99.90;;;;;;5000674;28;19926;-73
2022/05/06 02:10:32;;;;;;;;;;;12.30;99.90;;;;;;4987389;28;20386;-73
2022/05/06 02:13:01;;;;;;;;;;;12.30;99.90;;;;;;4993301;28;19940;-73
2022/05/06 02:15:44;;;;;;;;;;;12.30;99.90;;;;;;5003750;28;20040;-73
2022/05/06 02:18:16;;;;;;;;;;;12.30;99.90;;;;;;5003966;28;19936;-73
2022/05/06 02:21:06;;;;;;;;;;;12.30;99.90;;;;;;5004353;28;19932;-72
2022/05/06 02:23:56;;;;;;;;;;;12.30;99.90;;;;;;5003280;28;20013;-73
2022/05/06 02:26:35;;;;;;;;;;;12.20;99.90;;;;;;4990394;28;19929;-73
2022/05/06 02:29:07;;;;;;;;;;;12.20;99.90;;;;;;5000314;28;19957;-73
2022/05/06 02:34:28;;;;;;;;;;;12.20;99.90;;;;;;5015927;28;19933;-73
2022/05/06 02:37:00;;;;;;;;;;;12.20;99.90;;;;;;5009815;28;19932;-73
2022/05/06 02:39:52;;;;;;;;;;;12.30;99.90;;;;;;5002391;28;19996;-73
2022/05/06 02:42:21;;;;;;;;;;;12.20;99.90;;;;;;4990034;28;20460;-72
2022/05/06 02:44:54;;;;;;;;;;;12.20;99.90;;;;;;5001889;28;19936;-73
2022/05/06 02:47:26;;;;;;;;;;;12.10;99.90;;;;;;4988704;28;20020;-72
2022/05/06 02:49:58;;;;;;;;;;;12.10;99.90;;;;;;5002086;28;19926;-72
2022/05/06 02:52:31;;;;;;;;;;;12.10;99.90;;;;;;5002186;28;19983;-73
2022/05/06 02:55:03;;;;;;;;;;;12.10;99.90;;;;;;5004573;28;20020;-73
2022/05/06 02:57:35;;;;;;;;;;;12.10;99.90;;;;;;4999863;28;20405;-73
2022/05/06 03:00:02;;;;;;;;;;;12.10;99.90;;;;;;5006460;28;19933;-72
2022/05/06 03:02:34;;;;;;;;;;;12.10;99.90;;;;;;5000955;28;19929;-73
2022/05/06 03:05:07;;;;;;;;;;;12.10;99.90;;;;;;5003327;28;19965;-73
2022/05/06 03:07:41;;;;;;;;;;;12.10;99.90;;;;;;5001839;28;20441;-73
2022/05/06 03:10:13;;;;;;;;;;;12.10;99.90;;;;;;5001427;28;20379;-73
2022/05/06 03:12:47;;;;;;;;;;;12.00;99.90;;;;;;5002912;28;20012;-72
2022/05/06 03:15:19;;;;;;;;;;;12.00;99.90;;;;;;5018865;28;19930;-73
2022/05/06 03:18:01;;;;;;;;;;;11.90;99.90;;;;;;4985197;28;19936;-72
2022/05/06 03:20:32;;;;;;;;;;;11.90;99.90;;;;;;4987587;28;19929;-73
2022/05/06 03:23:04;;;;;;;;;;;11.80;99.90;;;;;;4990389;28;19926;-73
2022/05/06 03:25:31;;;;;;;;;;;11.80;99.90;;;;;;5000562;28;19930;-72
2022/05/06 03:28:07;;;;;;;;;;;11.80;99.90;;;;;;4995181;28;19937;-72
2022/05/06 03:30:44;;;;;;;;;;;11.90;99.90;;;;;;5001902;28;20401;-72
2022/05/06 03:33:47;;;;;;;;;;;11.90;99.90;;;;;;4989289;28;19983;-72
2022/05/06 03:36:24;;;;;;;;;;;11.90;99.90;;;;;;4994057;28;19963;-72
2022/05/06 03:39:04;;;;;;;;;;;11.90;99.90;;;;;;5009030;28;19951;-72
2022/05/06 03:41:43;;;;;;;;;;;11.90;99.90;;;;;;5001379;28;19932;-72
2022/05/06 03:44:15;;;;;;;;;;;11.90;99.90;;;;;;4989192;28;19988;-72
2022/05/06 03:46:46;;;;;;;;;;;11.90;99.90;;;;;;4998955;28;20333;-72
2022/05/06 03:49:25;;;;;;;;;;;11.90;99.90;;;;;;5021164;28;20338;-72
2022/05/06 03:51:51;;;;;;;;;;;11.90;99.90;;;;;;5003783;28;19929;-72
2022/05/06 03:54:24;;;;;;;;;;;11.90;99.90;;;;;;5004001;28;20452;-72
2022/05/06 03:56:56;;;;;;;;;;;11.90;99.90;;;;;;4993622;28;19930;-73
2022/05/06 03:59:30;;;;;;;;;;;11.90;99.90;;;;;;5004296;28;19925;-73
2022/05/06 04:02:10;;;;;;;;;;;11.90;99.90;;;;;;4999004;28;19964;-72
2022/05/06 04:04:37;;;;;;;;;;;12.00;99.90;;;;;;5004828;28;19951;-74
2022/05/06 04:07:08;;;;;;;;;;;12.10;99.90;;;;;;4989413;28;19932;-72
2022/05/06 04:09:44;;;;;;;;;;;12.20;99.90;;;;;;4992437;28;20353;-74
2022/05/06 04:12:16;;;;;;;;;;;12.20;99.90;;;;;;5006855;28;20004;-72
2022/05/06 04:14:53;;;;;;;;;;;12.10;99.90;;;;;;5006805;28;19961;-73
2022/05/06 04:17:25;;;;;;;;;;;12.10;99.90;;;;;;5011848;28;19932;-73
2022/05/06 04:25:41;;;;;;;;;;;12.10;99.90;;;;;;5006398;28;19930;-72
2022/05/06 04:28:16;;;;;;;;;;;12.10;99.90;;;;;;4998086;28;20369;-72
2022/05/06 04:30:52;;;;;;;;;;;12.10;99.90;;;;;;4995608;28;19933;-72
2022/05/06 04:33:27;;;;;;;;;;;12.10;99.90;;;;;;4995096;28;20022;-72
2022/05/06 04:35:59;;;;;;;;;;;12.10;99.90;;;;;;4994543;28;19926;-72
2022/05/06 04:38:27;;;;;;;;;;;12.10;99.90;;;;;;5006753;28;19926;-73
2022/05/06 04:41:02;;;;;;;;;;;12.10;99.90;;;;;;4993118;28;20341;-73
2022/05/06 04:43:33;;;;;;;;;;;12.10;99.90;;;;;;4987382;28;19960;-73
2022/05/06 04:46:00;;;;;;;;;;;12.10;99.90;;;;;;5007506;28;19926;-73
2022/05/06 04:48:33;;;;;;;;;;;12.10;99.90;;;;;;5008287;28;19926;-72
2022/05/06 04:51:09;;;;;;;;;;;12.10;99.90;;;;;;5011305;28;19972;-72
2022/05/06 04:53:36;;;;;;;;;;;12.10;99.90;;;;;;4989738;28;19929;-72
2022/05/06 04:56:08;;;;;;;;;;;12.10;99.90;;;;;;4992577;28;19932;-72
2022/05/06 04:58:41;;;;;;;;;;;12.10;99.90;;;;;;4993427;28;19933;-72
2022/05/06 05:01:20;;;;;;;;;;;12.10;99.90;;;;;;5006089;28;19929;-72
2022/05/06 05:03:51;;;;;;;;;;;12.10;99.90;;;;;;4991671;28;20390;-74
2022/05/06 05:06:23;;;;;;;;;;;12.10;99.90;;;;;;5010092;28;19937;-72
2022/05/06 05:08:54;;;;;;;;;;;12.10;99.90;;;;;;5009216;28;19925;-73
2022/05/06 05:11:28;;;;;;;;;;;12.10;99.90;;;;;;4993471;28;20290;-72
2022/05/06 05:14:06;;;;;;;;;;;12.10;99.90;;;;;;4993660;28;20374;-72
2022/05/06 05:16:41;;;;;;;;;;;12.10;99.90;;;;;;5007968;28;19930;-72
2022/05/06 05:19:13;;;;;;;;;;;12.10;99.90;;;;;;4987932;28;19933;-72
2022/05/06 05:21:51;;;;;;;;;;;12.10;99.90;;;;;;4994622;28;20678;-72
2022/05/06 05:24:23;;;;;;;;;;;12.10;99.90;;;;;;4994665;28;19939;-73
2022/05/06 05:26:55;;;;;;;;;;;12.20;99.90;;;;;;5006959;28;19925;-72
2022/05/06 05:29:28;;;;;;;;;;;12.20;99.90;;;;;;4990884;28;20385;-73
2022/05/06 05:31:55;;;;;;;;;;;12.20;99.90;;;;;;5001630;28;19933;-73
2022/05/06 05:34:27;;;;;;;;;;;12.20;99.90;;;;;;5003902;28;19926;-73
2022/05/06 05:36:58;;;;;;;;;;;12.20;99.90;;;;;;5009402;28;20390;-72
2022/05/06 05:39:31;;;;;;;;;;;12.20;99.90;;;;;;5001183;28;19957;-73
2022/05/06 05:42:06;;;;;;;;;;;12.20;99.90;;;;;;5005488;28;20425;-72
2022/05/06 05:50:23;;;;;;;;;;;12.20;99.90;;;;;;5008738;28;19941;-73
2022/05/06 05:52:50;;;;;;;;;;;12.20;99.90;;;;;;4986927;28;19930;-72
2022/05/06 05:55:22;;;;;;;;;;;12.20;99.90;;;;;;5010223;28;20405;-72
2022/05/06 05:57:54;;;;;;;;;;;12.20;99.90;;;;;;4994453;28;20043;-72
2022/05/06 06:00:27;;;;;;;;;;;12.20;99.90;;;;;;5003358;28;20294;-72
2022/05/06 06:03:01;;;;;;;;;;;12.30;99.90;;;;;;5000241;28;19936;-72
2022/05/06 06:05:37;;;;;;;;;;;12.30;99.90;;;;;;5009149;28;19929;-72
2022/05/06 06:08:05;;;;;;;;;;;12.30;99.90;;;;;;5004498;28;19933;-72
2022/05/06 06:10:38;;;;;;;;;;;12.40;99.90;;;;;;5006662;28;19925;-72
2022/05/06 06:13:08;;;;;;;;;;;12.40;99.90;;;;;;5004107;28;19930;-72
2022/05/06 06:15:44;;;;;;;;;;;12.40;99.90;;;;;;4986649;28;20011;-72
2022/05/06 06:18:20;;;;;;;;;;;12.40;99.90;;;;;;5005987;28;20449;-72
2022/05/06 06:20:47;;;;;;;;;;;12.50;99.90;;;;;;5000574;28;19929;-72
2022/05/06 06:23:20;;;;;;;;;;;12.50;99.90;;;;;;4989782;28;19926;-72
2022/05/06 06:25:52;;;;;;;;;;;12.50;99.90;;;;;;5007912;28;20374;-72
2022/05/06 06:28:24;;;;;;;;;;;12.50;99.90;;;;;;5009944;28;19981;-72
2022/05/06 06:30:55;;;;;;;;;;;12.50;99.90;;;;;;5005739;28;19925;-72
2022/05/06 06:33:27;;;;;;;;;;;12.50;99.90;;;;;;4998933;28;20034;-72
2022/05/06 06:35:55;;;;;;;;;;;12.60;99.90;;;;;;4986194;28;22348;-72
2022/05/06 06:38:27;;;;;;;;;;;12.60;99.90;;;;;;5004372;28;19925;-72
2022/05/06 06:41:02;;;;;;;;;;;12.60;99.90;;;;;;5001363;28;20571;-72
2022/05/06 06:43:33;;;;;;;;;;;12.70;99.90;;;;;;5008209;28;19936;-73
2022/05/06 06:46:40;;;;;;;;;;;12.70;99.90;;;;;;4955040;28;20023;-73
2022/05/06 06:49:25;;;;;;;;;;;12.70;99.90;;;;;;4993226;28;19933;-72
2022/05/06 06:51:59;;;;;;;;;;;12.80;99.90;;;;;;4986187;28;19932;-72
2022/05/06 06:54:31;;;;;;;;;;;12.80;99.90;;;;;;5002409;28;19933;-72
2022/05/06 06:57:03;;;;;;;;;;;12.80;99.90;;;;;;5007682;28;19925;-72
2022/05/06 06:59:34;;;;;;;;;;;12.80;99.90;;;;;;4988567;28;19933;-73
2022/05/06 07:02:06;;;;;;;;;;;12.90;99.90;;;;;;5001740;28;20379;-72
2022/05/06 07:04:33;;;;;;;;;;;13.00;99.90;;;;;;5004586;28;19925;-72
2022/05/06 07:12:40;;;;;;;;;;;13.10;99.90;;;;;;4997478;28;20362;-73
2022/05/06 07:15:12;;;;;;;;;;;13.20;99.90;;;;;;5007145;28;20017;-72
2022/05/06 07:17:44;;;;;;;;;;;13.10;99.90;;;;;;5000110;28;19930;-72
2022/05/06 07:20:16;;;;;;;;;;;13.10;99.90;;;;;;5001546;28;19933;-72
2022/05/06 07:22:47;;;;;;;;;;;13.20;99.90;;;;;;5003262;28;20524;-72
2022/05/06 07:25:19;;;;;;;;;;;13.20;99.90;;;;;;5004774;28;21212;-72
2022/05/06 07:27:51;;;;;;;;;;;13.20;99.90;;;;;;5006790;28;20405;-73
2022/05/06 07:30:22;;;;;;;;;;;13.20;99.90;;;;;;5005565;28;20008;-72
2022/05/06 07:32:54;;;;;;;;;;;13.20;99.90;;;;;;5003672;28;20300;-72
2022/05/06 07:35:25;;;;;;;;;;;13.20;99.90;;;;;;5005672;28;19925;-72
2022/05/06 07:37:57;;;;;;;;;;;13.10;99.90;;;;;;5010189;28;20364;-72
2022/05/06 07:40:28;;;;;;;;;;;13.10;99.90;;;;;;5007993;28;20294;-72
2022/05/06 07:43:00;;;;;;;;;;;13.10;99.90;;;;;;4986069;28;19926;-73
2022/05/06 07:45:27;;;;;;;;;;;13.10;99.90;;;;;;5006730;28;19930;-72
2022/05/06 07:48:00;;;;;;;;;;;13.10;99.90;;;;;;5009663;28;19940;-73
2022/05/06 07:50:32;;;;;;;;;;;13.00;99.90;;;;;;5010050;28;20219;-72
2022/05/06 07:53:03;;;;;;;;;;;13.00;99.90;;;;;;5004729;28;20513;-72
2022/05/06 07:55:36;;;;;;;;;;;13.00;99.90;;;;;;5008349;28;19926;-72
2022/05/06 07:58:08;;;;;;;;;;;13.00;99.90;;;;;;5007950;28;19937;-72
2022/05/06 08:00:40;;;;;;;;;;;12.90;99.90;;;;;;5007937;28;19925;-72
2022/05/06 08:06:02;;;;;;;;;;;12.90;99.90;;;;;;5007693;28;19926;-72
2022/05/06 08:08:34;;;;;;;;;;;13.10;99.90;;;;;;5007743;28;19934;-72
2022/05/06 08:11:06;;;;;;;;;;;13.20;99.90;;;;;;4992973;28;19933;-72
2022/05/06 08:13:37;;;;;;;;;;;13.30;99.90;;;;;;5001913;28;19925;-72
2022/05/06 08:16:09;;;;;;;;;;;13.30;99.90;;;;;;4992120;28;20020;-72
2022/05/06 08:18:41;;;;;;;;;;;13.30;99.90;;;;;;5007739;28;19925;-72
2022/05/06 08:21:12;;;;;;;;;;;13.20;99.90;;;;;;5005569;28;20012;-72
2022/05/06 08:23:44;;;;;;;;;;;13.20;99.90;;;;;;5005015;28;19929;-72
2022/05/06 08:26:16;;;;;;;;;;;13.20;99.90;;;;;;5007803;28;19931;-72
2022/05/06 08:28:47;;;;;;;;;;;13.20;99.90;;;;;;5005355;28;19926;-72
2022/05/06 08:31:20;;;;;;;;;;;13.30;99.90;;;;;;5005682;28;19925;-72
2022/05/06 08:33:51;;;;;;;;;;;13.40;99.90;;;;;;4990325;28;19932;-72
2022/05/06 08:36:23;;;;;;;;;;;13.50;99.90;;;;;;5006744;28;19925;-72
2022/05/06 08:38:54;;;;;;;;;;;13.50;99.90;;;;;;5008428;28;19936;-72
2022/05/06 08:41:26;;;;;;;;;;;13.50;99.90;;;;;;5004796;28;19926;-72
2022/05/06 08:50:50;;;;;;;;;;;13.60;99.90;;;;;;4991312;28;20310;-73
2022/05/06 08:52:35;;;;;;;;;;;13.70;99.90;;;;;;5001257;28;19929;-72
2022/05/06 08:55:07;;;;;;;;;;;13.70;99.90;;;;;;5008162;28;19926;-72
2022/05/06 08:57:40;;;;;;;;;;;13.60;99.90;;;;;;5010816;28;19929;-72
2022/05/06 09:00:12;;;;;;;;;;;13.50;99.90;;;;;;5009028;28;19959;-73
2022/05/06 09:02:39;;;;;;;;;;;13.50;99.90;;;;;;5010841;28;19930;-72
2022/05/06 09:05:16;;;;;;;;;;;13.50;99.90;;;;;;5010873;28;19929;-73
2022/05/06 09:08:02;;;;;;;;;;;13.50;99.90;;;;;;5013770;28;19925;-73
2022/05/06 09:10:33;;;;;;;;;;;13.60;99.90;;;;;;5009618;28;19944;-73
2022/05/06 09:13:05;;;;;;;;;;;13.70;99.90;;;;;;4995397;28;19929;-73
2022/05/06 09:18:29;;;;;;;;;;;13.90;99.90;;;;;;5012227;28;20008;-72
2022/05/06 09:21:10;;;;;;;;;;;13.90;99.90;;;;;;5008690;28;19926;-73
2022/05/06 09:23:37;;;;;;;;;;;14.00;99.90;;;;;;5010492;28;19936;-73
2022/05/06 09:26:15;;;;;;;;;;;14.00;99.90;;;;;;5010829;28;19925;-72
2022/05/06 09:28:47;;;;;;;;;;;14.10;99.90;;;;;;5007400;28;19930;-72
2022/05/06 09:31:24;;;;;;;;;;;14.10;99.90;;;;;;4993695;28;19926;-73
2022/05/06 09:34:08;;;;;;;;;;;14.10;99.90;;;;;;5010954;28;19930;-72
2022/05/06 09:36:40;;;;;;;;;;;14.00;99.90;;;;;;5012872;28;20329;-73
2022/05/06 09:39:08;;;;;;;;;;;14.00;99.90;;;;;;5009062;28;19932;-72
2022/05/06 09:41:40;;;;;;;;;;;14.00;99.90;;;;;;5006879;28;19925;-72
2022/05/06 09:44:12;;;;;;;;;;;14.00;99.90;;;;;;5008425;28;19925;-73
2022/05/06 09:46:38;;;;;;;;;;;14.00;99.90;;;;;;5007416;28;20510;-73
2022/05/06 09:49:11;;;;;;;;;;;14.00;99.90;;;;;;5011388;28;19925;-72
2022/05/06 09:51:44;;;;;;;;;;;14.00;99.90;;;;;;5011345;28;20497;-72
2022/05/06 09:54:30;;;;;;;;;;;14.00;99.90;;;;;;5005189;28;19925;-72
2022/05/06 09:57:05;;;;;;;;;;;14.00;99.90;;;;;;4994788;28;19925;-72
2022/05/06 09:59:37;;;;;;;;;;;14.00;99.90;;;;;;5007378;28;19933;-72
2022/05/06 10:02:09;;;;;;;;;;;14.00;99.90;;;;;;4992989;28;19933;-72
2022/05/06 10:04:37;;;;;;;;;;;13.90;99.90;;;;;;5007812;28;19925;-72
2022/05/06 10:07:07;;;;;;;;;;;13.90;99.90;;;;;;5008319;28;20306;-72
2022/05/06 10:09:45;;;;;;;;;;;13.80;99.90;;;;;;4992825;28;19979;-72
2022/05/06 10:12:17;;;;;;;;;;;13.70;99.90;;;;;;5010498;28;19929;-73
2022/05/06 10:14:49;;;;;;;;;;;13.70;99.90;;;;;;5011458;28;19931;-72
2022/05/06 10:17:39;;;;;;;;;;;13.60;99.90;;;;;;5008614;28;19930;-72
2022/05/06 10:20:11;;;;;;;;;;;13.60;99.90;;;;;;5011138;28;19933;-72
2022/05/06 10:22:57;;;;;;;;;;;13.60;99.90;;;;;;5001181;28;20738;-73
2022/05/06 10:25:40;;;;;;;;;;;13.60;99.90;;;;;;5010306;28;19933;-72
2022/05/06 10:34:11;;;;;;;;;;;13.80;99.90;;;;;;5003217;28;19930;-73
2022/05/06 10:36:47;;;;;;;;;;;14.00;99.90;;;;;;5009369;28;19926;-72
2022/05/06 10:39:27;;;;;;;;;;;14.00;99.90;;;;;;5008279;28;19926;-72
2022/05/06 10:42:06;;;;;;;;;;;14.00;99.90;;;;;;5001072;28;20450;-73
2022/05/06 10:44:38;;;;;;;;;;;13.90;99.90;;;;;;5002350;28;20022;-73
2022/05/06 10:47:13;;;;;;;;;;;13.90;99.90;;;;;;5004116;28;20310;-72
2022/05/06 10:49:51;;;;;;;;;;;13.90;99.90;;;;;;4999433;28;19933;-72
2022/05/06 10:52:24;;;;;;;;;;;13.90;99.90;;;;;;5001271;28;19929;-72
2022/05/06 10:55:00;;;;;;;;;;;14.00;99.90;;;;;;5000508;28;19936;-72
2022/05/06 10:57:43;;;;;;;;;;;14.00;99.90;;;;;;5002567;28;19929;-72
2022/05/06 11:00:15;;;;;;;;;;;13.90;99.90;;;;;;5002061;28;19929;-72
2022/05/06 11:02:48;;;;;;;;;;;14.00;99.90;;;;;;5002546;28;19926;-72
2022/05/06 11:05:20;;;;;;;;;;;14.00;99.90;;;;;;4993560;28;19929;-72
2022/05/06 11:07:56;;;;;;;;;;;13.90;99.90;;;;;;4995947;28;19937;-72
2022/05/06 11:10:29;;;;;;;;;;;13.90;99.90;;;;;;5001663;28;19925;-73
2022/05/06 11:13:06;;;;;;;;;;;13.90;99.90;;;;;;4987999;28;19932;-72
2022/05/06 11:15:37;;;;;;;;;;;13.90;99.90;;;;;;5006367;28;19936;-72
2022/05/06 11:18:10;;;;;;;;;;;14.00;99.90;;;;;;5007368;28;19925;-72
2022/05/06 11:20:41;;;;;;;;;;;14.00;99.90;;;;;;5004010;28;19925;-72
2022/05/06 11:23:13;;;;;;;;;;;14.00;99.90;;;;;;5004157;28;19933;-72
2022/05/06 11:25:46;;;;;;;;;;;14.00;99.90;;;;;;5007810;28;19937;-72
2022/05/06 11:28:21;;;;;;;;;;;14.10;99.90;;;;;;5001530;28;20302;-72
2022/05/06 11:30:53;;;;;;;;;;;14.10;99.90;;;;;;5000612;28;19933;-72
2022/05/06 11:33:27;;;;;;;;;;;14.20;99.90;;;;;;5004099;28;20004;-72
2022/05/06 11:36:03;;;;;;;;;;;14.20;99.90;;;;;;5003891;28;19926;-72
2022/05/06 11:38:30;;;;;;;;;;;14.20;99.90;;;;;;5006562;28;19929;-72
2022/05/06 11:41:05;;;;;;;;;;;14.20;99.90;;;;;;4999584;28;19925;-72
2022/05/06 11:43:37;;;;;;;;;;;14.20;99.90;;;;;;5002914;28;20007;-72
2022/05/06 11:49:05;;;;;;;;;;;14.30;99.90;;;;;;5003855;28;20293;-73
2022/05/06 11:51:38;;;;;;;;;;;14.40;99.90;;;;;;5010999;28;20406;-76
2022/05/06 11:54:05;;;;;;;;;;;14.30;99.90;;;;;;5009163;28;19929;-74
2022/05/06 11:56:38;;;;;;;;;;;14.30;99.90;;;;;;5007301;28;20416;-74
2022/05/06 11:59:10;;;;;;;;;;;14.30;99.90;;;;;;5009471;28;19925;-75
2022/05/06 12:01:41;;;;;;;;;;;14.30;99.90;;;;;;5008975;28;19926;-73
2022/05/06 12:04:09;;;;;;;;;;;14.30;99.90;;;;;;4999750;28;19930;-73
2022/05/06 12:06:47;;;;;;;;;;;14.20;99.90;;;;;;4985584;28;19931;-73
2022/05/06 12:09:24;;;;;;;;;;;14.10;99.90;;;;;;5002226;28;19933;-73
2022/05/06 12:12:04;;;;;;;;;;;14.00;99.90;;;;;;4986678;28;19929;-72
2022/05/06 12:14:36;;;;;;;;;;;14.00;99.90;;;;;;5006233;28;19938;-73
2022/05/06 12:17:12;;;;;;;;;;;14.00;99.90;;;;;;5002372;28;19929;-73
2022/05/06 12:19:44;;;;;;;;;;;13.90;99.90;;;;;;5000010;28;19934;-73
2022/05/06 12:22:23;;;;;;;;;;;13.80;99.90;;;;;;5002123;28;20036;-73
2022/05/06 12:24:56;;;;;;;;;;;13.80;99.90;;;;;;5011433;28;20405;-72
2022/05/06 12:27:26;;;;;;;;;;;13.80;99.90;;;;;;5003541;28;19926;-73
2022/05/06 12:29:58;;;;;;;;;;;13.70;99.90;;;;;;4998683;28;19930;-74
2022/05/06 12:32:30;;;;;;;;;;;13.70;99.90;;;;;;4988857;28;20401;-73
2022/05/06 12:35:06;;;;;;;;;;;13.60;99.90;;;;;;5005213;28;20457;-72
2022/05/06 12:37:53;;;;;;;;;;;13.50;99.90;;;;;;5005900;28;20412;-73
2022/05/06 12:40:28;;;;;;;;;;;13.40;99.90;;;;;;4998810;28;19942;-72
2022/05/06 12:43:03;;;;;;;;;;;13.40;99.90;;;;;;5005658;28;19936;-73
2022/05/06 12:45:35;;;;;;;;;;;13.40;99.90;;;;;;5003392;28;20016;-74
2022/05/06 12:50:52;;;;;;;;;;;13.40;99.90;;;;;;5004343;28;19926;-73
2022/05/06 12:53:23;;;;;;;;;;;13.40;99.90;;;;;;5012546;28;19926;-73
2022/05/06 12:55:50;;;;;;;;;;;13.40;99.90;;;;;;5010403;28;21017;-73
2022/05/06 12:58:17;;;;;;;;;;;13.40;99.90;;;;;;4997463;28;20283;-73
2022/05/06 13:00:44;;;;;;;;;;;13.50;99.90;;;;;;5006177;28;19936;-73
2022/05/06 13:03:16;;;;;;;;;;;13.50;99.90;;;;;;5001257;28;19941;-73
2022/05/06 13:05:48;;;;;;;;;;;13.50;99.90;;;;;;5004196;28;19926;-73
2022/05/06 13:08:20;;;;;;;;;;;13.50;99.90;;;;;;4996207;28;19929;-73
2022/05/06 13:10:47;;;;;;;;;;;13.50;99.90;;;;;;4995766;28;20413;-73
2022/05/06 13:13:19;;;;;;;;;;;13.60;99.90;;;;;;5002528;28;19926;-73
2022/05/06 13:15:50;;;;;;;;;;;13.60;99.90;;;;;;5004484;28;19932;-73
2022/05/06 13:18:22;;;;;;;;;;;13.70;99.90;;;;;;4994110;28;20317;-73
2022/05/06 13:20:54;;;;;;;;;;;13.70;99.90;;;;;;5001365;28;20382;-73
2022/05/06 13:23:25;;;;;;;;;;;13.80;99.90;;;;;;5011273;28;20024;-73
2022/05/06 13:25:57;;;;;;;;;;;13.80;99.90;;;;;;4987252;28;19950;-73
2022/05/06 13:28:29;;;;;;;;;;;13.90;99.90;;;;;;5004680;28;19926;-73
2022/05/06 13:31:00;;;;;;;;;;;14.00;99.90;;;;;;5006401;28;19925;-73
2022/05/06 13:33:32;;;;;;;;;;;14.00;99.90;;;;;;4988547;28;19932;-74
2022/05/06 13:35:59;;;;;;;;;;;13.90;99.90;;;;;;5011847;28;19956;-73
2022/05/06 13:38:31;;;;;;;;;;;14.00;99.90;;;;;;5008190;28;20009;-73
2022/05/06 13:41:02;;;;;;;;;;;14.10;99.90;;;;;;5004875;28;19930;-73
2022/05/06 13:43:34;;;;;;;;;;;14.10;99.90;;;;;;5004897;28;19933;-73
2022/05/06 13:46:05;;;;;;;;;;;14.10;99.90;;;;;;5003818;28;19953;-73
2022/05/06 13:48:37;;;;;;;;;;;14.20;99.90;;;;;;5003424;28;19926;-73
2022/05/06 13:51:09;;;;;;;;;;;14.20;99.90;;;;;;5000791;28;20274;-73
2022/05/06 13:53:40;;;;;;;;;;;14.20;99.90;;;;;;5003268;28;20410;-73
2022/05/06 13:59:05;;;;;;;;;;;14.20;99.90;;;;;;5004445;28;19929;-73
2022/05/06 14:01:38;;;;;;;;;;;14.30;99.90;;;;;;5010390;28;19933;-73
2022/05/06 14:04:11;;;;;;;;;;;14.30;99.90;;;;;;5010842;28;19933;-74
2022/05/06 14:06:43;;;;;;;;;;;14.30;99.90;;;;;;5011511;28;19926;-73
2022/05/06 14:09:14;;;;;;;;;;;14.30;99.90;;;;;;5001143;28;19953;-74
2022/05/06 14:11:46;;;;;;;;;;;14.30;99.90;;;;;;4996797;28;19929;-73
2022/05/06 14:14:13;;;;;;;;;;;14.30;99.90;;;;;;4990775;28;19930;-74
2022/05/06 14:16:44;;;;;;;;;;;14.30;99.90;;;;;;4999006;28;19929;-73
2022/05/06 14:19:16;;;;;;;;;;;14.30;99.90;;;;;;5009637;28;19937;-73
2022/05/06 14:21:48;;;;;;;;;;;14.30;99.90;;;;;;5001723;28;19948;-73
2022/05/06 14:24:19;;;;;;;;;;;14.30;99.90;;;;;;5007414;28;20298;-73
2022/05/06 14:26:51;;;;;;;;;;;14.40;99.90;;;;;;5008817;28;20021;-73
2022/05/06 14:29:22;;;;;;;;;;;14.40;99.90;;;;;;5011615;28;19936;-73
2022/05/06 14:31:49;;;;;;;;;;;14.50;99.90;;;;;;5007773;28;19929;-74
2022/05/06 14:34:21;;;;;;;;;;;14.50;99.90;;;;;;5000865;28;20023;-73
2022/05/06 14:36:48;;;;;;;;;;;14.60;99.90;;;;;;5010179;28;19980;-73
2022/05/06 14:39:14;;;;;;;;;;;14.60;99.90;;;;;;5006298;28;19925;-73
2022/05/06 14:41:46;;;;;;;;;;;14.60;99.90;;;;;;5008132;28;20309;-74
2022/05/06 14:44:18;;;;;;;;;;;14.70;99.90;;;;;;5007509;28;19936;-73
2022/05/06 14:46:44;;;;;;;;;;;14.70;99.90;;;;;;4988464;28;19929;-73
2022/05/06 14:49:16;;;;;;;;;;;14.70;99.90;;;;;;4991751;28;19940;-73
2022/05/06 14:51:48;;;;;;;;;;;14.70;99.90;;;;;;5005840;28;19925;-74
2022/05/06 14:54:16;;;;;;;;;;;14.70;99.90;;;;;;5008965;28;19934;-72
2022/05/06 14:56:47;;;;;;;;;;;14.80;99.90;;;;;;4982497;28;19930;-72
2022/05/06 14:59:19;;;;;;;;;;;14.90;99.90;;;;;;5007551;28;19965;-73
2022/05/06 15:01:51;;;;;;;;;;;14.80;99.90;;;;;;4994570;28;19996;-72
2022/05/06 15:04:23;;;;;;;;;;;14.80;99.90;;;;;;4999452;28;19926;-73
2022/05/06 15:06:54;;;;;;;;;;;14.90;99.90;;;;;;4994725;28;19929;-73
2022/05/06 15:09:26;;;;;;;;;;;14.90;99.90;;;;;;4997886;28;19933;-73
2022/05/06 15:11:57;;;;;;;;;;;14.80;99.90;;;;;;5004063;28;20352;-73
2022/05/06 15:14:32;;;;;;;;;;;14.80;99.90;;;;;;5003036;28;20329;-73
2022/05/06 15:17:03;;;;;;;;;;;14.80;99.90;;;;;;5005065;28;19929;-73
2022/05/06 15:19:31;;;;;;;;;;;14.90;99.90;;;;;;5001968;28;19925;-73
2022/05/06 15:22:06;;;;;;;;;;;15.00;99.90;;;;;;5002570;28;20390;-73
2022/05/06 15:24:37;;;;;;;;;;;15.00;99.90;;;;;;4999545;28;20027;-73
2022/05/06 15:27:12;;;;;;;;;;;15.10;99.90;;;;;;5002168;28;19925;-73
2022/05/06 15:29:43;;;;;;;;;;;15.10;99.90;;;;;;5004772;28;19926;-73
2022/05/06 15:32:15;;;;;;;;;;;15.10;99.90;;;;;;5003045;28;20389;-73
2022/05/06 15:34:47;;;;;;;;;;;15.10;99.90;;;;;;5000061;28;19969;-73